Veidnes — LLSD — position and weather

sailwx.info

Track history (hours):
 
Tides and Currents Weather Stations Pressure Air Temp Water Temp Dewpoint Dewpoint Depression Visibility Wind Speed Wind Dir Waves Ship Positions

Veidnes

Last reported at 2017-May-24 21:00 UTC. Time now 2017-May-24 21:27 UTC.
Position N 68°34' E 015°11'.

Length 51 m; draft 5 m.

Type: Cargo ship. MMSI: 259237000.

Date/timePositionNaut miles runAvg speedWind from/ knotsBaromVisibWave heightAir tempDewpointWater temp
2017-May-24 21:00N 68°34' E 015°11'5 9.2
2017-May-24 20:30N 68°30' E 015°11'4 8.5
2017-May-24 20:00N 68°25' E 015°08'5 9.4
2017-May-24 19:30N 68°21' E 015°03'5 9.1
2017-May-24 19:00N 68°17' E 014°58'5 9.1
2017-May-24 18:30N 68°13' E 014°57'5 9.2
2017-May-24 18:00N 68°09' E 015°04'5 9.3
2017-May-24 17:30N 68°05' E 015°11'5 9.3
2017-May-24 17:00N 68°01' E 015°17'2 5.0
2017-May-24 16:30N 67°58' E 015°19'0 0.0
2017-May-24 16:00N 67°58' E 015°19'0 0.0
2017-May-24 15:29N 67°58' E 015°19'0 0.4
2017-May-24 15:00N 67°59' E 015°19'0 0.9
2017-May-24 14:30N 67°59' E 015°20'2 2.0
2017-May-24 13:29N 68°01' E 015°20'0 0.0
2017-May-24 12:59N 68°01' E 015°20'0 0.0
2017-May-24 12:29N 68°01' E 015°20'0 0.0
2017-May-24 11:59N 68°01' E 015°20'0 0.0
2017-May-24 11:29N 68°01' E 015°20'0 0.0
2017-May-24 10:59N 68°01' E 015°20'0 0.0
2017-May-24 10:29N 68°01' E 015°20'0 0.0
2017-May-24 09:59N 68°01' E 015°20'0 0.0
2017-May-24 09:29N 68°01' E 015°20'0 0.0
2017-May-24 08:59N 68°01' E 015°20'0 0.0
2017-May-24 08:29N 68°01' E 015°20'0 0.0
2017-May-24 07:59N 68°01' E 015°20'0 0.0
2017-May-24 07:29N 68°01' E 015°20'0 0.0
2017-May-24 06:58N 68°01' E 015°20'0 0.0
2017-May-24 06:28N 68°01' E 015°20'0 0.0
2017-May-24 05:58N 68°01' E 015°20'0 0.0
2017-May-24 05:28N 68°01' E 015°20'0 0.0
2017-May-24 04:55N 68°01' E 015°20'0 0.0
2017-May-24 04:28N 68°01' E 015°20'0 0.0
2017-May-24 03:58N 68°01' E 015°20'0 0.0
2017-May-24 03:28N 68°01' E 015°20'0 0.0
2017-May-24 02:58N 68°01' E 015°20'0 0.0
2017-May-24 02:28N 68°01' E 015°20'0 0.0
2017-May-24 01:58N 68°01' E 015°20'0 0.0
2017-May-24 01:28N 68°01' E 015°20'0 0.0
2017-May-24 00:58N 68°01' E 015°20'0 0.0
2017-May-24 00:25N 68°01' E 015°20'0 0.0
2017-May-23 23:58N 68°01' E 015°20'0 0.0
2017-May-23 23:28N 68°01' E 015°20'0 0.0
2017-May-23 22:58N 68°01' E 015°20'0 0.0
2017-May-23 22:28N 68°01' E 015°20'0 0.0
2017-May-23 21:58N 68°01' E 015°20'0 0.0
2017-May-23 21:28N 68°01' E 015°20'0 0.0
2017-May-23 20:58N 68°01' E 015°20'0 0.0
2017-May-23 20:28N 68°01' E 015°20'0 0.0
2017-May-23 19:55N 68°01' E 015°20'0 0.0
2017-May-23 19:28N 68°01' E 015°20'0 0.0
2017-May-23 18:58N 68°01' E 015°20'0 0.0
2017-May-23 18:28N 68°01' E 015°20'0 0.0
2017-May-23 17:58N 68°01' E 015°20'0 0.0
2017-May-23 17:28N 68°01' E 015°20'0 0.0
2017-May-23 16:55N 68°01' E 015°20'1 3.0
2017-May-23 16:30N 67°60' E 015°20'1 2.8
2017-May-23 16:00N 67°58' E 015°19'0 0.0
2017-May-23 15:30N 67°58' E 015°19'0 0.0
2017-May-23 15:00N 67°58' E 015°19'3 2.6
2017-May-23 14:00N 68°01' E 015°20'0 0.0
2017-May-23 13:30N 68°01' E 015°20'0 0.0
2017-May-23 13:00N 68°01' E 015°20'0 0.0
2017-May-23 12:30N 68°01' E 015°20'0 0.0
2017-May-23 12:00N 68°01' E 015°20'0 0.0
2017-May-23 11:30N 68°01' E 015°20'0 0.0
2017-May-23 11:00N 68°01' E 015°20'0 0.0
2017-May-23 10:30N 68°01' E 015°20'0 0.0
2017-May-23 10:00N 68°01' E 015°20'0 0.0
2017-May-23 09:30N 68°01' E 015°20'0 0.0
2017-May-23 09:00N 68°01' E 015°20'0 0.0
2017-May-23 08:30N 68°01' E 015°20'0 0.0
2017-May-23 08:00N 68°01' E 015°20'0 0.0
2017-May-23 07:30N 68°01' E 015°20'0 0.0
2017-May-23 07:00N 68°01' E 015°20'0 0.0
2017-May-23 06:30N 68°01' E 015°20'0 0.0
2017-May-23 06:00N 68°01' E 015°20'0 0.0
2017-May-23 05:30N 68°01' E 015°20'0 0.0
2017-May-23 05:00N 68°01' E 015°20'0 0.0
2017-May-23 04:30N 68°01' E 015°20'0 0.0
2017-May-23 04:01N 68°01' E 015°20'0 0.0
2017-May-23 03:31N 68°01' E 015°20'0 0.0
2017-May-23 03:00N 68°01' E 015°20'0 0.0
2017-May-23 02:30N 68°01' E 015°20'0 0.0
2017-May-23 02:00N 68°01' E 015°20'0 0.0
2017-May-23 01:30N 68°01' E 015°20'0 0.0
2017-May-23 01:00N 68°01' E 015°20'0 0.0
2017-May-23 00:30N 68°01' E 015°20'0 0.0
2017-May-23 00:00N 68°01' E 015°20'0 0.0
2017-May-22 23:31N 68°01' E 015°20'0 0.0
2017-May-22 23:00N 68°01' E 015°20'0 0.0
2017-May-22 22:30N 68°01' E 015°20'0 0.0
2017-May-22 22:00N 68°01' E 015°20'0 0.0
2017-May-22 21:30N 68°01' E 015°20'0 0.0
2017-May-22 21:00N 68°01' E 015°20'0 0.0
2017-May-22 20:31N 68°01' E 015°20'0 0.0
2017-May-22 20:00N 68°01' E 015°20'0 0.0
2017-May-22 19:30N 68°01' E 015°20'0 0.0
2017-May-22 19:00N 68°01' E 015°20'0 0.0
2017-May-22 18:30N 68°01' E 015°20'0 0.0
2017-May-22 18:00N 68°01' E 015°20'0 0.0
2017-May-22 17:30N 68°01' E 015°20'0 0.0
2017-May-22 17:00N 68°01' E 015°20'0 0.0
2017-May-22 16:30N 68°01' E 015°20'1 2.5
2017-May-22 16:00N 67°60' E 015°20'1 2.7
2017-May-22 15:30N 67°58' E 015°19'0 0.0
2017-May-22 15:00N 67°58' E 015°19'5 5.2
2017-May-22 14:00N 67°54' E 015°11'0 0.0
2017-May-22 13:30N 67°54' E 015°11'0 0.8
2017-May-22 13:00N 67°54' E 015°12'5 9.7
2017-May-22 12:30N 67°58' E 015°21'3 5.8
2017-May-22 11:59N 68°01' E 015°20'0 0.0
2017-May-22 11:29N 68°01' E 015°20'0 0.0
2017-May-22 10:59N 68°01' E 015°20'0 0.0
2017-May-22 10:29N 68°01' E 015°20'0 0.0
2017-May-22 09:59N 68°01' E 015°20'0 0.0
2017-May-22 09:29N 68°01' E 015°20'0 0.0
2017-May-22 08:59N 68°01' E 015°20'0 0.0
2017-May-22 08:23N 68°01' E 015°20'0 0.0
2017-May-22 07:59N 68°01' E 015°20'0 0.0
2017-May-22 07:29N 68°01' E 015°20'0 0.0
2017-May-22 06:59N 68°01' E 015°20'0 0.0
2017-May-22 06:29N 68°01' E 015°20'0 0.0
2017-May-22 05:59N 68°01' E 015°20'0 0.0
2017-May-22 05:29N 68°01' E 015°20'0 0.0
2017-May-22 04:59N 68°01' E 015°20'0 0.0
2017-May-22 04:29N 68°01' E 015°20'0 0.0
2017-May-22 04:00N 68°01' E 015°20'0 0.0
2017-May-22 03:30N 68°01' E 015°20'0 0.0
2017-May-22 03:00N 68°01' E 015°20'0 0.0
2017-May-22 02:31N 68°01' E 015°20'0 0.0
2017-May-22 01:59N 68°01' E 015°20'0 0.0
2017-May-22 01:30N 68°01' E 015°20'0 0.0
2017-May-22 01:00N 68°01' E 015°20'0 0.0
2017-May-22 00:30N 68°01' E 015°20'0 0.0
2017-May-22 00:00N 68°01' E 015°20'0 0.0
2017-May-21 23:31N 68°01' E 015°20'0 0.0
2017-May-21 23:00N 68°01' E 015°20'0 0.0
2017-May-21 22:30N 68°01' E 015°20'0 0.0
2017-May-21 22:00N 68°01' E 015°20'0 0.0
2017-May-21 21:30N 68°01' E 015°20'0 0.0
2017-May-21 21:00N 68°01' E 015°20'0 0.0
2017-May-21 20:30N 68°01' E 015°20'0 0.0
2017-May-21 20:00N 68°01' E 015°20'0 0.0
2017-May-21 19:30N 68°01' E 015°20'0 0.0
2017-May-21 19:00N 68°01' E 015°20'0 0.0
2017-May-21 18:30N 68°01' E 015°20'0 0.0
2017-May-21 18:00N 68°01' E 015°20'0 0.0
2017-May-21 17:30N 68°01' E 015°20'2 4.2
2017-May-21 17:00N 67°59' E 015°20'1 1.1
2017-May-21 16:31N 67°58' E 015°19'0 0.0
2017-May-21 16:00N 67°58' E 015°19'0 0.3
2017-May-21 15:30N 67°59' E 015°19'0 0.0
2017-May-21 15:00N 67°59' E 015°19'2 3.4
2017-May-21 14:30N 68°00' E 015°18'6 6.1
2017-May-21 13:30N 68°06' E 015°10'3 6.6
2017-May-21 13:00N 68°08' E 015°05'3 6.8
2017-May-21 12:31N 68°11' E 014°60'3 6.1
2017-May-21 12:00N 68°14' E 014°57'4 8.5
2017-May-21 11:30N 68°18' E 014°58'4 8.0
2017-May-21 11:01N 68°22' E 015°03'4 8.0
2017-May-21 10:30N 68°25' E 015°08'4 8.0
2017-May-21 10:01N 68°29' E 015°13'4 8.0
2017-May-21 09:31N 68°33' E 015°10'4 8.7
2017-May-21 09:01N 68°36' E 015°16'5 9.6
2017-May-21 08:30N 68°40' E 015°25'4 8.4
2017-May-21 07:59N 68°44' E 015°25'5 9.7
2017-May-21 07:29N 68°49' E 015°26'4 9.0
2017-May-21 07:00N 68°53' E 015°20'1 2.8
2017-May-21 06:30N 68°54' E 015°17'0 0.5
2017-May-21 06:00N 68°54' E 015°18'4 7.9
2017-May-21 05:30N 68°51' E 015°25'5 9.4
2017-May-21 05:00N 68°46' E 015°26'5 9.7
2017-May-21 04:30N 68°42' E 015°26'5 9.2
2017-May-21 04:00N 68°38' E 015°19'5 9.6
2017-May-21 03:30N 68°34' E 015°11'4 8.8
2017-May-21 03:00N 68°30' E 015°12'4 8.0
2017-May-21 02:29N 68°26' E 015°09'4 8.2
2017-May-21 02:00N 68°22' E 015°04'5 9.1
2017-May-21 01:30N 68°18' E 014°58'5 9.2
2017-May-21 01:00N 68°13' E 014°56'5 9.2
2017-May-21 00:29N 68°09' E 015°03'5 9.4
2017-May-21 00:00N 68°05' E 015°10'5 9.3
2017-May-20 23:30N 68°02' E 015°16'3 6.5
2017-May-20 23:00N 67°58' E 015°19'0 0.0
2017-May-20 22:30N 67°58' E 015°19'0 0.0
2017-May-20 22:00N 67°58' E 015°19'0 0.3
2017-May-20 21:30N 67°59' E 015°19'3 6.7
2017-May-20 21:00N 68°02' E 015°16'510.8
2017-May-20 20:30N 68°06' E 015°08'611.0
2017-May-20 20:00N 68°11' E 015°00'510.2
2017-May-20 19:30N 68°16' E 014°58'510.1
2017-May-20 19:00N 68°21' E 015°02'5 9.4
2017-May-20 18:30N 68°25' E 015°08'5 9.5
2017-May-20 18:00N 68°29' E 015°12'510.2
2017-May-20 17:30N 68°35' E 015°12'510.9
2017-May-20 17:00N 68°39' E 015°21'4 7.0
2017-May-20 16:30N 68°42' E 015°25'3 5.7
2017-May-20 15:59N 68°45' E 015°25'611.3
2017-May-20 15:29N 68°50' E 015°26'5 9.8
2017-May-20 15:00N 68°54' E 015°17'0 0.0
2017-May-20 14:30N 68°54' E 015°17'6 5.9
2017-May-20 13:30N 68°49' E 015°26'5 9.2
2017-May-20 13:00N 68°45' E 015°25'4 8.4
2017-May-20 12:31N 68°40' E 015°25'5 9.5
2017-May-20 12:01N 68°37' E 015°17'5 9.2
2017-May-20 11:30N 68°33' E 015°10'4 8.3
2017-May-20 11:00N 68°29' E 015°13'4 8.9
2017-May-20 10:30N 68°25' E 015°08'4 9.0
2017-May-20 10:00N 68°21' E 015°02'4 8.8
2017-May-20 09:30N 68°17' E 014°58'4 8.6
2017-May-20 09:00N 68°12' E 014°58'4 8.9
2017-May-20 08:30N 68°09' E 015°04'4 8.9
2017-May-20 08:00N 68°05' E 015°11'5 9.0
2017-May-20 07:30N 68°01' E 015°17'3 4.7
2017-May-20 06:58N 67°59' E 015°19'0 0.0
2017-May-20 06:28N 67°59' E 015°19'0 0.1
2017-May-20 06:00N 67°59' E 015°18'4 8.6
2017-May-20 05:30N 68°03' E 015°15'510.6
2017-May-20 05:00N 68°07' E 015°07'510.6
2017-May-20 04:30N 68°12' E 014°59'510.0
2017-May-20 04:00N 68°16' E 014°58'510.2
2017-May-20 03:30N 68°21' E 015°02'510.6
2017-May-20 03:01N 68°26' E 015°09'5 9.0
2017-May-20 02:30N 68°30' E 015°10'5 9.9
2017-May-20 02:00N 68°35' E 015°14'510.7
2017-May-20 01:30N 68°39' E 015°23'510.3
2017-May-20 01:00N 68°44' E 015°25'510.6
2017-May-20 00:31N 68°50' E 015°26'5 9.9
2017-May-20 00:00N 68°54' E 015°19'1 1.1
2017-May-19 23:30N 68°54' E 015°17'1 1.3
2017-May-19 23:00N 68°54' E 015°19'4 8.1
2017-May-19 22:30N 68°51' E 015°26'5 9.3
2017-May-19 21:59N 68°46' E 015°25'4 8.9
2017-May-19 21:30N 68°42' E 015°26'4 8.7
2017-May-19 21:00N 68°38' E 015°20'5 9.2
2017-May-19 20:29N 68°34' E 015°12'4 9.0
2017-May-19 19:59N 68°30' E 015°11'4 8.5
2017-May-19 19:30N 68°26' E 015°09'510.0
2017-May-19 19:00N 68°21' E 015°03'4 8.9
2017-May-19 18:30N 68°17' E 014°58'4 9.0
2017-May-19 18:00N 68°13' E 014°57'5 9.1
2017-May-19 17:30N 68°09' E 015°04'5 9.2
2017-May-19 17:00N 68°05' E 015°11'5 9.1
2017-May-19 16:30N 68°01' E 015°17'3 5.4
2017-May-19 16:00N 67°59' E 015°19'0 0.0
2017-May-19 15:30N 67°59' E 015°19'0 0.0
2017-May-19 15:00N 67°59' E 015°19'3 2.5
2017-May-19 13:59N 68°01' E 015°20'0 0.0
2017-May-19 13:29N 68°01' E 015°20'0 0.0
2017-May-19 12:59N 68°01' E 015°20'0 0.0
2017-May-19 12:29N 68°01' E 015°20'0 0.0
2017-May-19 11:59N 68°01' E 015°20'0 0.0
2017-May-19 11:29N 68°01' E 015°20'0 0.0
2017-May-19 10:59N 68°01' E 015°20'0 0.0
2017-May-19 10:29N 68°01' E 015°20'0 0.0
2017-May-19 09:59N 68°01' E 015°20'0 0.0
2017-May-19 09:22N 68°01' E 015°20'0 0.0
2017-May-19 08:58N 68°01' E 015°20'0 0.0
2017-May-19 08:28N 68°01' E 015°20'0 0.0
2017-May-19 07:58N 68°01' E 015°20'0 0.0
2017-May-19 07:28N 68°01' E 015°20'0 0.0
2017-May-19 06:58N 68°01' E 015°20'0 0.0
2017-May-19 06:28N 68°01' E 015°20'0 0.0
2017-May-19 05:58N 68°01' E 015°20'0 0.0
2017-May-19 05:28N 68°01' E 015°20'0 0.0
2017-May-19 04:58N 68°01' E 015°20'0 0.0
2017-May-19 04:28N 68°01' E 015°20'0 0.0
2017-May-19 03:58N 68°01' E 015°20'0 0.0
2017-May-19 03:28N 68°01' E 015°20'0 0.0
2017-May-19 02:55N 68°01' E 015°20'0 0.0
2017-May-19 02:28N 68°01' E 015°20'0 0.0
2017-May-19 01:58N 68°01' E 015°20'0 0.0
2017-May-19 01:28N 68°01' E 015°20'0 0.0
2017-May-19 00:58N 68°01' E 015°20'0 0.0
2017-May-19 00:28N 68°01' E 015°20'0 0.0
2017-May-18 23:58N 68°01' E 015°20'0 0.0
2017-May-18 23:28N 68°01' E 015°20'0 0.0
2017-May-18 22:58N 68°01' E 015°20'0 0.0
2017-May-18 22:28N 68°01' E 015°20'0 0.0
2017-May-18 21:58N 68°01' E 015°20'0 0.0
2017-May-18 21:29N 68°01' E 015°20'0 0.0
2017-May-18 21:00N 68°01' E 015°20'0 0.0
2017-May-18 20:29N 68°01' E 015°20'0 0.0
2017-May-18 20:00N 68°01' E 015°20'0 0.0
2017-May-18 19:30N 68°01' E 015°20'0 0.0
2017-May-18 19:00N 68°01' E 015°20'0 0.0
2017-May-18 18:30N 68°01' E 015°20'0 0.0
2017-May-18 18:00N 68°01' E 015°20'0 0.0
2017-May-18 17:30N 68°01' E 015°20'0 0.0
2017-May-18 17:00N 68°01' E 015°20'0 0.0
2017-May-18 16:30N 68°01' E 015°20'2 4.6
2017-May-18 16:00N 67°59' E 015°19'0 0.5
2017-May-18 15:30N 67°59' E 015°19'0 0.0
2017-May-18 15:00N 67°59' E 015°19'3 2.5
2017-May-18 13:59N 68°01' E 015°20'0 0.0
2017-May-18 13:29N 68°01' E 015°20'0 0.0
2017-May-18 12:59N 68°01' E 015°20'0 0.0
2017-May-18 12:29N 68°01' E 015°20'0 0.0
2017-May-18 11:59N 68°01' E 015°20'0 0.0
2017-May-18 11:29N 68°01' E 015°20'0 0.0
2017-May-18 10:59N 68°01' E 015°20'0 0.0
2017-May-18 10:29N 68°01' E 015°20'0 0.0
2017-May-18 09:59N 68°01' E 015°20'0 0.0
2017-May-18 09:29N 68°01' E 015°20'0 0.0
2017-May-18 08:59N 68°01' E 015°20'0 0.0
2017-May-18 08:26N 68°01' E 015°20'0 0.0
2017-May-18 07:59N 68°01' E 015°20'0 0.0
2017-May-18 07:29N 68°01' E 015°20'0 0.0
2017-May-18 06:59N 68°01' E 015°20'0 0.0
2017-May-18 06:29N 68°01' E 015°20'0 0.0
2017-May-18 05:59N 68°01' E 015°20'0 0.0
2017-May-18 05:29N 68°01' E 015°20'0 0.0
2017-May-18 04:59N 68°01' E 015°20'0 0.0
2017-May-18 04:23N 68°01' E 015°20'0 0.0
2017-May-18 03:59N 68°01' E 015°20'0 0.0
2017-May-18 03:29N 68°01' E 015°20'0 0.0
2017-May-18 02:59N 68°01' E 015°20'0 0.0
2017-May-18 02:29N 68°01' E 015°20'0 0.0
2017-May-18 01:59N 68°01' E 015°20'0 0.0
2017-May-18 01:29N 68°01' E 015°20'0 0.0
2017-May-18 00:59N 68°01' E 015°20'0 0.0
2017-May-18 00:29N 68°01' E 015°20'0 0.0
2017-May-17 23:59N 68°01' E 015°20'0 0.0
2017-May-17 23:29N 68°01' E 015°20'0 0.0
2017-May-17 22:59N 68°01' E 015°20'0 0.0
2017-May-17 22:29N 68°01' E 015°20'0 0.0
2017-May-17 21:59N 68°01' E 015°20'0 0.0
2017-May-17 21:29N 68°01' E 015°20'0 0.0
2017-May-17 20:59N 68°01' E 015°20'0 0.0
2017-May-17 20:29N 68°01' E 015°20'0 0.0
2017-May-17 19:59N 68°01' E 015°20'0 0.0
2017-May-17 19:29N 68°01' E 015°20'0 0.0
2017-May-17 18:44N 68°01' E 015°20'0 0.0
2017-May-17 18:26N 68°01' E 015°20'0 0.0
2017-May-17 17:59N 68°01' E 015°20'0 0.0
2017-May-17 17:28N 68°01' E 015°20'0 0.0
2017-May-17 17:00N 68°01' E 015°20'3 5.0
2017-May-17 16:30N 67°59' E 015°19'0 0.0
2017-May-17 16:00N 67°59' E 015°19'0 0.0
2017-May-17 15:30N 67°59' E 015°19'2 4.8
2017-May-17 15:00N 68°01' E 015°20'0 0.1
2017-May-17 14:00N 68°01' E 015°20'0 0.0
2017-May-17 13:27N 68°01' E 015°20'0 0.0
2017-May-17 13:00N 68°01' E 015°20'0 0.0
2017-May-17 12:30N 68°01' E 015°20'0 0.0
2017-May-17 11:59N 68°01' E 015°20'0 0.0
2017-May-17 11:23N 68°01' E 015°20'0 0.0
2017-May-17 10:59N 68°01' E 015°20'0 0.0
2017-May-17 10:29N 68°01' E 015°20'0 0.0
2017-May-17 09:59N 68°01' E 015°20'0 0.0
2017-May-17 09:29N 68°01' E 015°20'0 0.0
2017-May-17 08:59N 68°01' E 015°20'0 0.0
2017-May-17 07:47N 68°01' E 015°20'0 0.0
2017-May-17 07:29N 68°01' E 015°20'0 0.0
2017-May-17 06:59N 68°01' E 015°20'0 0.0
2017-May-17 06:29N 68°01' E 015°20'0 0.0
2017-May-17 06:00N 68°01' E 015°20'1 2.4
2017-May-17 05:30N 68°01' E 015°17'611.1
2017-May-17 05:00N 68°06' E 015°09'511.0
2017-May-17 04:30N 68°10' E 015°01'510.7
2017-May-17 04:00N 68°16' E 014°57'510.7
2017-May-17 03:30N 68°21' E 015°02'5 9.4
2017-May-17 03:00N 68°25' E 015°08'5 9.4
2017-May-17 02:30N 68°29' E 015°13'5 9.7
2017-May-17 02:00N 68°34' E 015°11'510.7
2017-May-17 01:30N 68°38' E 015°21'510.0
2017-May-17 00:59N 68°43' E 015°25'510.6
2017-May-17 00:30N 68°48' E 015°26'510.0
2017-May-17 00:00N 68°53' E 015°21'2 3.8
2017-May-16 23:29N 68°54' E 015°17'0 0.0
2017-May-16 23:00N 68°54' E 015°17'3 6.2
2017-May-16 22:30N 68°52' E 015°24'5 9.6
2017-May-16 22:00N 68°47' E 015°26'5 9.4
2017-May-16 21:30N 68°43' E 015°26'4 8.4
2017-May-16 21:00N 68°39' E 015°22'5 9.6
2017-May-16 20:29N 68°35' E 015°13'4 9.3
2017-May-16 20:00N 68°31' E 015°10'4 8.2
2017-May-16 19:30N 68°27' E 015°11'4 8.6
2017-May-16 19:00N 68°23' E 015°05'5 9.3
2017-May-16 18:29N 68°19' E 014°58'5 9.3
2017-May-16 18:00N 68°14' E 014°57'4 8.7
2017-May-16 17:30N 68°10' E 015°01'5 9.5
2017-May-16 17:00N 68°06' E 015°08'5 9.6
2017-May-16 16:30N 68°02' E 015°15'4 7.9
2017-May-16 16:00N 67°59' E 015°19'0 0.0
2017-May-16 15:30N 67°59' E 015°19'0 0.0
2017-May-16 15:00N 67°59' E 015°19'1 1.3
2017-May-16 14:30N 67°58' E 015°20'5 5.3
2017-May-16 13:30N 67°54' E 015°11'0 0.0
2017-May-16 13:00N 67°54' E 015°11'0 0.0
2017-May-16 12:30N 67°54' E 015°11'0 0.3
2017-May-16 12:00N 67°54' E 015°11'5 9.1
2017-May-16 11:30N 67°57' E 015°20'4 7.4
2017-May-16 11:00N 68°01' E 015°20'0 0.0
2017-May-16 10:30N 68°01' E 015°20'0 0.0
2017-May-16 10:00N 68°01' E 015°20'0 0.0
2017-May-16 09:30N 68°01' E 015°20'0 0.0
2017-May-16 09:00N 68°01' E 015°20'0 0.0
2017-May-16 08:30N 68°01' E 015°20'0 0.0
2017-May-16 08:00N 68°01' E 015°20'0 0.0
2017-May-16 07:30N 68°01' E 015°20'0 0.0
2017-May-16 06:59N 68°01' E 015°20'0 0.0
2017-May-16 06:30N 68°01' E 015°20'0 0.0
2017-May-16 06:00N 68°01' E 015°20'0 0.0
2017-May-16 05:30N 68°01' E 015°20'0 0.0
2017-May-16 05:00N 68°01' E 015°20'0 0.0
2017-May-16 04:30N 68°01' E 015°20'0 0.0
2017-May-16 04:00N 68°01' E 015°20'0 0.0
2017-May-16 03:30N 68°01' E 015°20'0 0.0
2017-May-16 03:00N 68°01' E 015°20'0 0.0
2017-May-16 02:30N 68°01' E 015°20'0 0.0
2017-May-16 01:59N 68°01' E 015°20'0 0.0
2017-May-16 01:30N 68°01' E 015°20'0 0.0
2017-May-16 01:00N 68°01' E 015°20'0 0.0
2017-May-16 00:30N 68°01' E 015°20'0 0.0
2017-May-16 00:00N 68°01' E 015°20'0 0.0
2017-May-15 23:30N 68°01' E 015°20'0 0.0
2017-May-15 23:00N 68°01' E 015°20'0 0.0
2017-May-15 22:30N 68°01' E 015°20'0 0.0
2017-May-15 22:00N 68°01' E 015°20'0 0.0
2017-May-15 21:30N 68°01' E 015°20'0 0.0
2017-May-15 21:00N 68°01' E 015°20'0 0.0
2017-May-15 20:30N 68°01' E 015°20'0 0.0
2017-May-15 20:00N 68°01' E 015°20'0 0.0
2017-May-15 19:30N 68°01' E 015°20'0 0.0
2017-May-15 18:59N 68°01' E 015°20'0 0.0
2017-May-15 18:29N 68°01' E 015°20'0 0.0
2017-May-15 18:00N 68°01' E 015°20'0 0.0
2017-May-15 17:30N 68°01' E 015°20'0 0.0
2017-May-15 17:00N 68°01' E 015°20'0 0.0
2017-May-15 16:30N 68°01' E 015°20'0 0.1
2017-May-15 16:00N 68°01' E 015°20'3 5.0
2017-May-15 15:30N 67°59' E 015°19'0 0.0
2017-May-15 15:00N 67°59' E 015°19'4 3.9
2017-May-15 14:00N 67°55' E 015°16'2 3.9
2017-May-15 13:30N 67°54' E 015°11'0 0.0
2017-May-15 13:00N 67°54' E 015°11'0 0.0
2017-May-15 12:30N 67°54' E 015°11'1 2.9
2017-May-15 12:00N 67°55' E 015°15'5 9.5
2017-May-15 11:30N 67°59' E 015°20'2 4.2
2017-May-15 11:00N 68°01' E 015°20'0 0.0
2017-May-15 10:29N 68°01' E 015°20'0 0.0
2017-May-15 10:00N 68°01' E 015°20'0 0.0
2017-May-15 09:30N 68°01' E 015°20'0 0.0
2017-May-15 09:00N 68°01' E 015°20'0 0.0
2017-May-15 08:30N 68°01' E 015°20'0 0.0
2017-May-15 08:00N 68°01' E 015°20'0 0.0
2017-May-15 07:30N 68°01' E 015°20'0 0.0
2017-May-15 07:00N 68°01' E 015°20'0 0.0
2017-May-15 06:30N 68°01' E 015°20'0 0.0
2017-May-15 05:59N 68°01' E 015°20'0 0.0
2017-May-15 05:30N 68°01' E 015°20'0 0.0
2017-May-15 05:00N 68°01' E 015°20'0 0.0
2017-May-15 04:30N 68°01' E 015°20'0 0.0
2017-May-15 04:00N 68°01' E 015°20'0 0.0
2017-May-15 03:30N 68°01' E 015°20'0 0.0
2017-May-15 03:00N 68°01' E 015°20'0 0.0
2017-May-15 02:30N 68°01' E 015°20'0 0.0
2017-May-15 02:00N 68°01' E 015°20'0 0.0
2017-May-15 01:30N 68°01' E 015°20'0 0.0
2017-May-15 01:00N 68°01' E 015°20'0 0.0
2017-May-15 00:30N 68°01' E 015°20'0 0.0
2017-May-15 00:01N 68°01' E 015°20'0 0.0
2017-May-14 23:30N 68°01' E 015°20'0 0.0
2017-May-14 23:00N 68°01' E 015°20'0 0.0
2017-May-14 22:30N 68°01' E 015°20'0 0.0
2017-May-14 22:00N 68°01' E 015°20'0 0.0
2017-May-14 21:30N 68°01' E 015°20'  
Track history (hours):
 
Tides and Currents Weather Stations Pressure Air Temp Water Temp Dewpoint Dewpoint Depression Visibility Wind Speed Wind Dir Waves Ship Positions

Veidnes

Last reported at 2017-May-24 21:00 UTC. Time now 2017-May-24 21:27 UTC.
Position N 68°34' E 015°11'.

Length 51 m; draft 5 m.

Type: Cargo ship. MMSI: 259237000.

Date/timePositionNaut miles runAvg speedWind from/ knotsBaromVisibWave heightAir tempDewpointWater temp
2017-May-24 21:00N 68°34' E 015°11'5 9.2
2017-May-24 20:30N 68°30' E 015°11'4 8.5
2017-May-24 20:00N 68°25' E 015°08'5 9.4
2017-May-24 19:30N 68°21' E 015°03'5 9.1
2017-May-24 19:00N 68°17' E 014°58'5 9.1
2017-May-24 18:30N 68°13' E 014°57'5 9.2
2017-May-24 18:00N 68°09' E 015°04'5 9.3
2017-May-24 17:30N 68°05' E 015°11'5 9.3
2017-May-24 17:00N 68°01' E 015°17'2 5.0
2017-May-24 16:30N 67°58' E 015°19'0 0.0
2017-May-24 16:00N 67°58' E 015°19'0 0.0
2017-May-24 15:29N 67°58' E 015°19'0 0.4
2017-May-24 15:00N 67°59' E 015°19'0 0.9
2017-May-24 14:30N 67°59' E 015°20'2 2.0
2017-May-24 13:29N 68°01' E 015°20'0 0.0
2017-May-24 12:59N 68°01' E 015°20'0 0.0
2017-May-24 12:29N 68°01' E 015°20'0 0.0
2017-May-24 11:59N 68°01' E 015°20'0 0.0
2017-May-24 11:29N 68°01' E 015°20'0 0.0
2017-May-24 10:59N 68°01' E 015°20'0 0.0
2017-May-24 10:29N 68°01' E 015°20'0 0.0
2017-May-24 09:59N 68°01' E 015°20'0 0.0
2017-May-24 09:29N 68°01' E 015°20'0 0.0
2017-May-24 08:59N 68°01' E 015°20'0 0.0
2017-May-24 08:29N 68°01' E 015°20'0 0.0
2017-May-24 07:59N 68°01' E 015°20'0 0.0
2017-May-24 07:29N 68°01' E 015°20'0 0.0
2017-May-24 06:58N 68°01' E 015°20'0 0.0
2017-May-24 06:28N 68°01' E 015°20'0 0.0
2017-May-24 05:58N 68°01' E 015°20'0 0.0
2017-May-24 05:28N 68°01' E 015°20'0 0.0
2017-May-24 04:55N 68°01' E 015°20'0 0.0
2017-May-24 04:28N 68°01' E 015°20'0 0.0
2017-May-24 03:58N 68°01' E 015°20'0 0.0
2017-May-24 03:28N 68°01' E 015°20'0 0.0
2017-May-24 02:58N 68°01' E 015°20'0 0.0
2017-May-24 02:28N 68°01' E 015°20'0 0.0
2017-May-24 01:58N 68°01' E 015°20'0 0.0
2017-May-24 01:28N 68°01' E 015°20'0 0.0
2017-May-24 00:58N 68°01' E 015°20'0 0.0
2017-May-24 00:25N 68°01' E 015°20'0 0.0
2017-May-23 23:58N 68°01' E 015°20'0 0.0
2017-May-23 23:28N 68°01' E 015°20'0 0.0
2017-May-23 22:58N 68°01' E 015°20'0 0.0
2017-May-23 22:28N 68°01' E 015°20'0 0.0
2017-May-23 21:58N 68°01' E 015°20'0 0.0
2017-May-23 21:28N 68°01' E 015°20'0 0.0
2017-May-23 20:58N 68°01' E 015°20'0 0.0
2017-May-23 20:28N 68°01' E 015°20'0 0.0
2017-May-23 19:55N 68°01' E 015°20'0 0.0
2017-May-23 19:28N 68°01' E 015°20'0 0.0
2017-May-23 18:58N 68°01' E 015°20'0 0.0
2017-May-23 18:28N 68°01' E 015°20'0 0.0
2017-May-23 17:58N 68°01' E 015°20'0 0.0
2017-May-23 17:28N 68°01' E 015°20'0 0.0
2017-May-23 16:55N 68°01' E 015°20'1 3.0
2017-May-23 16:30N 67°60' E 015°20'1 2.8
2017-May-23 16:00N 67°58' E 015°19'0 0.0
2017-May-23 15:30N 67°58' E 015°19'0 0.0
2017-May-23 15:00N 67°58' E 015°19'3 2.6
2017-May-23 14:00N 68°01' E 015°20'0 0.0
2017-May-23 13:30N 68°01' E 015°20'0 0.0
2017-May-23 13:00N 68°01' E 015°20'0 0.0
2017-May-23 12:30N 68°01' E 015°20'0 0.0
2017-May-23 12:00N 68°01' E 015°20'0 0.0
2017-May-23 11:30N 68°01' E 015°20'0 0.0
2017-May-23 11:00N 68°01' E 015°20'0 0.0
2017-May-23 10:30N 68°01' E 015°20'0 0.0
2017-May-23 10:00N 68°01' E 015°20'0 0.0
2017-May-23 09:30N 68°01' E 015°20'0 0.0
2017-May-23 09:00N 68°01' E 015°20'0 0.0
2017-May-23 08:30N 68°01' E 015°20'0 0.0
2017-May-23 08:00N 68°01' E 015°20'0 0.0
2017-May-23 07:30N 68°01' E 015°20'0 0.0
2017-May-23 07:00N 68°01' E 015°20'0 0.0
2017-May-23 06:30N 68°01' E 015°20'0 0.0
2017-May-23 06:00N 68°01' E 015°20'0 0.0
2017-May-23 05:30N 68°01' E 015°20'0 0.0
2017-May-23 05:00N 68°01' E 015°20'0 0.0
2017-May-23 04:30N 68°01' E 015°20'0 0.0
2017-May-23 04:01N 68°01' E 015°20'0 0.0
2017-May-23 03:31N 68°01' E 015°20'0 0.0
2017-May-23 03:00N 68°01' E 015°20'0 0.0
2017-May-23 02:30N 68°01' E 015°20'0 0.0
2017-May-23 02:00N 68°01' E 015°20'0 0.0
2017-May-23 01:30N 68°01' E 015°20'0 0.0
2017-May-23 01:00N 68°01' E 015°20'0 0.0
2017-May-23 00:30N 68°01' E 015°20'0 0.0
2017-May-23 00:00N 68°01' E 015°20'0 0.0
2017-May-22 23:31N 68°01' E 015°20'0 0.0
2017-May-22 23:00N 68°01' E 015°20'0 0.0
2017-May-22 22:30N 68°01' E 015°20'0 0.0
2017-May-22 22:00N 68°01' E 015°20'0 0.0
2017-May-22 21:30N 68°01' E 015°20'0 0.0
2017-May-22 21:00N 68°01' E 015°20'0 0.0
2017-May-22 20:31N 68°01' E 015°20'0 0.0
2017-May-22 20:00N 68°01' E 015°20'0 0.0
2017-May-22 19:30N 68°01' E 015°20'0 0.0
2017-May-22 19:00N 68°01' E 015°20'0 0.0
2017-May-22 18:30N 68°01' E 015°20'0 0.0
2017-May-22 18:00N 68°01' E 015°20'0 0.0
2017-May-22 17:30N 68°01' E 015°20'0 0.0
2017-May-22 17:00N 68°01' E 015°20'0 0.0
2017-May-22 16:30N 68°01' E 015°20'1 2.5
2017-May-22 16:00N 67°60' E 015°20'1 2.7
2017-May-22 15:30N 67°58' E 015°19'0 0.0
2017-May-22 15:00N 67°58' E 015°19'5 5.2
2017-May-22 14:00N 67°54' E 015°11'0 0.0
2017-May-22 13:30N 67°54' E 015°11'0 0.8
2017-May-22 13:00N 67°54' E 015°12'5 9.7
2017-May-22 12:30N 67°58' E 015°21'3 5.8
2017-May-22 11:59N 68°01' E 015°20'0 0.0
2017-May-22 11:29N 68°01' E 015°20'0 0.0
2017-May-22 10:59N 68°01' E 015°20'0 0.0
2017-May-22 10:29N 68°01' E 015°20'0 0.0
2017-May-22 09:59N 68°01' E 015°20'0 0.0
2017-May-22 09:29N 68°01' E 015°20'0 0.0
2017-May-22 08:59N 68°01' E 015°20'0 0.0
2017-May-22 08:23N 68°01' E 015°20'0 0.0
2017-May-22 07:59N 68°01' E 015°20'0 0.0
2017-May-22 07:29N 68°01' E 015°20'0 0.0
2017-May-22 06:59N 68°01' E 015°20'0 0.0
2017-May-22 06:29N 68°01' E 015°20'0 0.0
2017-May-22 05:59N 68°01' E 015°20'0 0.0
2017-May-22 05:29N 68°01' E 015°20'0 0.0
2017-May-22 04:59N 68°01' E 015°20'0 0.0
2017-May-22 04:29N 68°01' E 015°20'0 0.0
2017-May-22 04:00N 68°01' E 015°20'0 0.0
2017-May-22 03:30N 68°01' E 015°20'0 0.0
2017-May-22 03:00N 68°01' E 015°20'0 0.0
2017-May-22 02:31N 68°01' E 015°20'0 0.0
2017-May-22 01:59N 68°01' E 015°20'0 0.0
2017-May-22 01:30N 68°01' E 015°20'0 0.0
2017-May-22 01:00N 68°01' E 015°20'0 0.0
2017-May-22 00:30N 68°01' E 015°20'0 0.0
2017-May-22 00:00N 68°01' E 015°20'0 0.0
2017-May-21 23:31N 68°01' E 015°20'0 0.0
2017-May-21 23:00N 68°01' E 015°20'0 0.0
2017-May-21 22:30N 68°01' E 015°20'0 0.0
2017-May-21 22:00N 68°01' E 015°20'0 0.0
2017-May-21 21:30N 68°01' E 015°20'0 0.0
2017-May-21 21:00N 68°01' E 015°20'0 0.0
2017-May-21 20:30N 68°01' E 015°20'0 0.0
2017-May-21 20:00N 68°01' E 015°20'0 0.0
2017-May-21 19:30N 68°01' E 015°20'0 0.0
2017-May-21 19:00N 68°01' E 015°20'0 0.0
2017-May-21 18:30N 68°01' E 015°20'0 0.0
2017-May-21 18:00N 68°01' E 015°20'0 0.0
2017-May-21 17:30N 68°01' E 015°20'2 4.2
2017-May-21 17:00N 67°59' E 015°20'1 1.1
2017-May-21 16:31N 67°58' E 015°19'0 0.0
2017-May-21 16:00N 67°58' E 015°19'0 0.3
2017-May-21 15:30N 67°59' E 015°19'0 0.0
2017-May-21 15:00N 67°59' E 015°19'2 3.4
2017-May-21 14:30N 68°00' E 015°18'6 6.1
2017-May-21 13:30N 68°06' E 015°10'3 6.6
2017-May-21 13:00N 68°08' E 015°05'3 6.8
2017-May-21 12:31N 68°11' E 014°60'3 6.1
2017-May-21 12:00N 68°14' E 014°57'4 8.5
2017-May-21 11:30N 68°18' E 014°58'4 8.0
2017-May-21 11:01N 68°22' E 015°03'4 8.0
2017-May-21 10:30N 68°25' E 015°08'4 8.0
2017-May-21 10:01N 68°29' E 015°13'4 8.0
2017-May-21 09:31N 68°33' E 015°10'4 8.7
2017-May-21 09:01N 68°36' E 015°16'5 9.6
2017-May-21 08:30N 68°40' E 015°25'4 8.4
2017-May-21 07:59N 68°44' E 015°25'5 9.7
2017-May-21 07:29N 68°49' E 015°26'4 9.0
2017-May-21 07:00N 68°53' E 015°20'1 2.8
2017-May-21 06:30N 68°54' E 015°17'0 0.5
2017-May-21 06:00N 68°54' E 015°18'4 7.9
2017-May-21 05:30N 68°51' E 015°25'5 9.4
2017-May-21 05:00N 68°46' E 015°26'5 9.7
2017-May-21 04:30N 68°42' E 015°26'5 9.2
2017-May-21 04:00N 68°38' E 015°19'5 9.6
2017-May-21 03:30N 68°34' E 015°11'4 8.8
2017-May-21 03:00N 68°30' E 015°12'4 8.0
2017-May-21 02:29N 68°26' E 015°09'4 8.2
2017-May-21 02:00N 68°22' E 015°04'5 9.1
2017-May-21 01:30N 68°18' E 014°58'5 9.2
2017-May-21 01:00N 68°13' E 014°56'5 9.2
2017-May-21 00:29N 68°09' E 015°03'5 9.4
2017-May-21 00:00N 68°05' E 015°10'5 9.3
2017-May-20 23:30N 68°02' E 015°16'3 6.5
2017-May-20 23:00N 67°58' E 015°19'0 0.0
2017-May-20 22:30N 67°58' E 015°19'0 0.0
2017-May-20 22:00N 67°58' E 015°19'0 0.3
2017-May-20 21:30N 67°59' E 015°19'3 6.7
2017-May-20 21:00N 68°02' E 015°16'510.8
2017-May-20 20:30N 68°06' E 015°08'611.0
2017-May-20 20:00N 68°11' E 015°00'510.2
2017-May-20 19:30N 68°16' E 014°58'510.1
2017-May-20 19:00N 68°21' E 015°02'5 9.4
2017-May-20 18:30N 68°25' E 015°08'5 9.5
2017-May-20 18:00N 68°29' E 015°12'510.2
2017-May-20 17:30N 68°35' E 015°12'510.9
2017-May-20 17:00N 68°39' E 015°21'4 7.0
2017-May-20 16:30N 68°42' E 015°25'3 5.7
2017-May-20 15:59N 68°45' E 015°25'611.3
2017-May-20 15:29N 68°50' E 015°26'5 9.8
2017-May-20 15:00N 68°54' E 015°17'0 0.0
2017-May-20 14:30N 68°54' E 015°17'6 5.9
2017-May-20 13:30N 68°49' E 015°26'5 9.2
2017-May-20 13:00N 68°45' E 015°25'4 8.4
2017-May-20 12:31N 68°40' E 015°25'5 9.5
2017-May-20 12:01N 68°37' E 015°17'5 9.2
2017-May-20 11:30N 68°33' E 015°10'4 8.3
2017-May-20 11:00N 68°29' E 015°13'4 8.9
2017-May-20 10:30N 68°25' E 015°08'4 9.0
2017-May-20 10:00N 68°21' E 015°02'4 8.8
2017-May-20 09:30N 68°17' E 014°58'4 8.6
2017-May-20 09:00N 68°12' E 014°58'4 8.9
2017-May-20 08:30N 68°09' E 015°04'4 8.9
2017-May-20 08:00N 68°05' E 015°11'5 9.0
2017-May-20 07:30N 68°01' E 015°17'3 4.7
2017-May-20 06:58N 67°59' E 015°19'0 0.0
2017-May-20 06:28N 67°59' E 015°19'0 0.1
2017-May-20 06:00N 67°59' E 015°18'4 8.6
2017-May-20 05:30N 68°03' E 015°15'510.6
2017-May-20 05:00N 68°07' E 015°07'510.6
2017-May-20 04:30N 68°12' E 014°59'510.0
2017-May-20 04:00N 68°16' E 014°58'510.2
2017-May-20 03:30N 68°21' E 015°02'510.6
2017-May-20 03:01N 68°26' E 015°09'5 9.0
2017-May-20 02:30N 68°30' E 015°10'5 9.9
2017-May-20 02:00N 68°35' E 015°14'510.7
2017-May-20 01:30N 68°39' E 015°23'510.3
2017-May-20 01:00N 68°44' E 015°25'510.6
2017-May-20 00:31N 68°50' E 015°26'5 9.9
2017-May-20 00:00N 68°54' E 015°19'1 1.1
2017-May-19 23:30N 68°54' E 015°17'1 1.3
2017-May-19 23:00N 68°54' E 015°19'4 8.1
2017-May-19 22:30N 68°51' E 015°26'5 9.3
2017-May-19 21:59N 68°46' E 015°25'4 8.9
2017-May-19 21:30N 68°42' E 015°26'4 8.7
2017-May-19 21:00N 68°38' E 015°20'5 9.2
2017-May-19 20:29N 68°34' E 015°12'4 9.0
2017-May-19 19:59N 68°30' E 015°11'4 8.5
2017-May-19 19:30N 68°26' E 015°09'510.0
2017-May-19 19:00N 68°21' E 015°03'4 8.9
2017-May-19 18:30N 68°17' E 014°58'4 9.0
2017-May-19 18:00N 68°13' E 014°57'5 9.1
2017-May-19 17:30N 68°09' E 015°04'5 9.2
2017-May-19 17:00N 68°05' E 015°11'5 9.1
2017-May-19 16:30N 68°01' E 015°17'3 5.4
2017-May-19 16:00N 67°59' E 015°19'0 0.0
2017-May-19 15:30N 67°59' E 015°19'0 0.0
2017-May-19 15:00N 67°59' E 015°19'3 2.5
2017-May-19 13:59N 68°01' E 015°20'0 0.0
2017-May-19 13:29N 68°01' E 015°20'0 0.0
2017-May-19 12:59N 68°01' E 015°20'0 0.0
2017-May-19 12:29N 68°01' E 015°20'0 0.0
2017-May-19 11:59N 68°01' E 015°20'0 0.0
2017-May-19 11:29N 68°01' E 015°20'0 0.0
2017-May-19 10:59N 68°01' E 015°20'0 0.0
2017-May-19 10:29N 68°01' E 015°20'0 0.0
2017-May-19 09:59N 68°01' E 015°20'0 0.0
2017-May-19 09:22N 68°01' E 015°20'0 0.0
2017-May-19 08:58N 68°01' E 015°20'0 0.0
2017-May-19 08:28N 68°01' E 015°20'0 0.0
2017-May-19 07:58N 68°01' E 015°20'0 0.0
2017-May-19 07:28N 68°01' E 015°20'0 0.0
2017-May-19 06:58N 68°01' E 015°20'0 0.0
2017-May-19 06:28N 68°01' E 015°20'0 0.0
2017-May-19 05:58N 68°01' E 015°20'0 0.0
2017-May-19 05:28N 68°01' E 015°20'0 0.0
2017-May-19 04:58N 68°01' E 015°20'0 0.0
2017-May-19 04:28N 68°01' E 015°20'0 0.0
2017-May-19 03:58N 68°01' E 015°20'0 0.0
2017-May-19 03:28N 68°01' E 015°20'0 0.0
2017-May-19 02:55N 68°01' E 015°20'0 0.0
2017-May-19 02:28N 68°01' E 015°20'0 0.0
2017-May-19 01:58N 68°01' E 015°20'0 0.0
2017-May-19 01:28N 68°01' E 015°20'0 0.0
2017-May-19 00:58N 68°01' E 015°20'0 0.0
2017-May-19 00:28N 68°01' E 015°20'0 0.0
2017-May-18 23:58N 68°01' E 015°20'0 0.0
2017-May-18 23:28N 68°01' E 015°20'0 0.0
2017-May-18 22:58N 68°01' E 015°20'0 0.0
2017-May-18 22:28N 68°01' E 015°20'0 0.0
2017-May-18 21:58N 68°01' E 015°20'0 0.0
2017-May-18 21:29N 68°01' E 015°20'0 0.0
2017-May-18 21:00N 68°01' E 015°20'0 0.0
2017-May-18 20:29N 68°01' E 015°20'0 0.0
2017-May-18 20:00N 68°01' E 015°20'0 0.0
2017-May-18 19:30N 68°01' E 015°20'0 0.0
2017-May-18 19:00N 68°01' E 015°20'0 0.0
2017-May-18 18:30N 68°01' E 015°20'0 0.0
2017-May-18 18:00N 68°01' E 015°20'0 0.0
2017-May-18 17:30N 68°01' E 015°20'0 0.0
2017-May-18 17:00N 68°01' E 015°20'0 0.0
2017-May-18 16:30N 68°01' E 015°20'2 4.6
2017-May-18 16:00N 67°59' E 015°19'0 0.5
2017-May-18 15:30N 67°59' E 015°19'0 0.0
2017-May-18 15:00N 67°59' E 015°19'3 2.5
2017-May-18 13:59N 68°01' E 015°20'0 0.0
2017-May-18 13:29N 68°01' E 015°20'0 0.0
2017-May-18 12:59N 68°01' E 015°20'0 0.0
2017-May-18 12:29N 68°01' E 015°20'0 0.0
2017-May-18 11:59N 68°01' E 015°20'0 0.0
2017-May-18 11:29N 68°01' E 015°20'0 0.0
2017-May-18 10:59N 68°01' E 015°20'0 0.0
2017-May-18 10:29N 68°01' E 015°20'0 0.0
2017-May-18 09:59N 68°01' E 015°20'0 0.0
2017-May-18 09:29N 68°01' E 015°20'0 0.0
2017-May-18 08:59N 68°01' E 015°20'0 0.0
2017-May-18 08:26N 68°01' E 015°20'0 0.0
2017-May-18 07:59N 68°01' E 015°20'0 0.0
2017-May-18 07:29N 68°01' E 015°20'0 0.0
2017-May-18 06:59N 68°01' E 015°20'0 0.0
2017-May-18 06:29N 68°01' E 015°20'0 0.0
2017-May-18 05:59N 68°01' E 015°20'0 0.0
2017-May-18 05:29N 68°01' E 015°20'0 0.0
2017-May-18 04:59N 68°01' E 015°20'0 0.0
2017-May-18 04:23N 68°01' E 015°20'0 0.0
2017-May-18 03:59N 68°01' E 015°20'0 0.0
2017-May-18 03:29N 68°01' E 015°20'0 0.0
2017-May-18 02:59N 68°01' E 015°20'0 0.0
2017-May-18 02:29N 68°01' E 015°20'0 0.0
2017-May-18 01:59N 68°01' E 015°20'0 0.0
2017-May-18 01:29N 68°01' E 015°20'0 0.0
2017-May-18 00:59N 68°01' E 015°20'0 0.0
2017-May-18 00:29N 68°01' E 015°20'0 0.0
2017-May-17 23:59N 68°01' E 015°20'0 0.0
2017-May-17 23:29N 68°01' E 015°20'0 0.0
2017-May-17 22:59N 68°01' E 015°20'0 0.0
2017-May-17 22:29N 68°01' E 015°20'0 0.0
2017-May-17 21:59N 68°01' E 015°20'0 0.0
2017-May-17 21:29N 68°01' E 015°20'0 0.0
2017-May-17 20:59N 68°01' E 015°20'0 0.0
2017-May-17 20:29N 68°01' E 015°20'0 0.0
2017-May-17 19:59N 68°01' E 015°20'0 0.0
2017-May-17 19:29N 68°01' E 015°20'0 0.0
2017-May-17 18:44N 68°01' E 015°20'0 0.0
2017-May-17 18:26N 68°01' E 015°20'0 0.0
2017-May-17 17:59N 68°01' E 015°20'0 0.0
2017-May-17 17:28N 68°01' E 015°20'0 0.0
2017-May-17 17:00N 68°01' E 015°20'3 5.0
2017-May-17 16:30N 67°59' E 015°19'0 0.0
2017-May-17 16:00N 67°59' E 015°19'0 0.0
2017-May-17 15:30N 67°59' E 015°19'2 4.8
2017-May-17 15:00N 68°01' E 015°20'0 0.1
2017-May-17 14:00N 68°01' E 015°20'0 0.0
2017-May-17 13:27N 68°01' E 015°20'0 0.0
2017-May-17 13:00N 68°01' E 015°20'0 0.0
2017-May-17 12:30N 68°01' E 015°20'0 0.0
2017-May-17 11:59N 68°01' E 015°20'0 0.0
2017-May-17 11:23N 68°01' E 015°20'0 0.0
2017-May-17 10:59N 68°01' E 015°20'0 0.0
2017-May-17 10:29N 68°01' E 015°20'0 0.0
2017-May-17 09:59N 68°01' E 015°20'0 0.0
2017-May-17 09:29N 68°01' E 015°20'0 0.0
2017-May-17 08:59N 68°01' E 015°20'0 0.0
2017-May-17 07:47N 68°01' E 015°20'0 0.0
2017-May-17 07:29N 68°01' E 015°20'0 0.0
2017-May-17 06:59N 68°01' E 015°20'0 0.0
2017-May-17 06:29N 68°01' E 015°20'0 0.0
2017-May-17 06:00N 68°01' E 015°20'1 2.4
2017-May-17 05:30N 68°01' E 015°17'611.1
2017-May-17 05:00N 68°06' E 015°09'511.0
2017-May-17 04:30N 68°10' E 015°01'510.7
2017-May-17 04:00N 68°16' E 014°57'510.7
2017-May-17 03:30N 68°21' E 015°02'5 9.4
2017-May-17 03:00N 68°25' E 015°08'5 9.4
2017-May-17 02:30N 68°29' E 015°13'5 9.7
2017-May-17 02:00N 68°34' E 015°11'510.7
2017-May-17 01:30N 68°38' E 015°21'510.0
2017-May-17 00:59N 68°43' E 015°25'510.6
2017-May-17 00:30N 68°48' E 015°26'510.0
2017-May-17 00:00N 68°53' E 015°21'2 3.8
2017-May-16 23:29N 68°54' E 015°17'0 0.0
2017-May-16 23:00N 68°54' E 015°17'3 6.2
2017-May-16 22:30N 68°52' E 015°24'5 9.6
2017-May-16 22:00N 68°47' E 015°26'5 9.4
2017-May-16 21:30N 68°43' E 015°26'4 8.4
2017-May-16 21:00N 68°39' E 015°22'5 9.6
2017-May-16 20:29N 68°35' E 015°13'4 9.3
2017-May-16 20:00N 68°31' E 015°10'4 8.2
2017-May-16 19:30N 68°27' E 015°11'4 8.6
2017-May-16 19:00N 68°23' E 015°05'5 9.3
2017-May-16 18:29N 68°19' E 014°58'5 9.3
2017-May-16 18:00N 68°14' E 014°57'4 8.7
2017-May-16 17:30N 68°10' E 015°01'5 9.5
2017-May-16 17:00N 68°06' E 015°08'5 9.6
2017-May-16 16:30N 68°02' E 015°15'4 7.9
2017-May-16 16:00N 67°59' E 015°19'0 0.0
2017-May-16 15:30N 67°59' E 015°19'0 0.0
2017-May-16 15:00N 67°59' E 015°19'1 1.3
2017-May-16 14:30N 67°58' E 015°20'5 5.3
2017-May-16 13:30N 67°54' E 015°11'0 0.0
2017-May-16 13:00N 67°54' E 015°11'0 0.0
2017-May-16 12:30N 67°54' E 015°11'0 0.3
2017-May-16 12:00N 67°54' E 015°11'5 9.1
2017-May-16 11:30N 67°57' E 015°20'4 7.4
2017-May-16 11:00N 68°01' E 015°20'0 0.0
2017-May-16 10:30N 68°01' E 015°20'0 0.0
2017-May-16 10:00N 68°01' E 015°20'0 0.0
2017-May-16 09:30N 68°01' E 015°20'0 0.0
2017-May-16 09:00N 68°01' E 015°20'0 0.0
2017-May-16 08:30N 68°01' E 015°20'0 0.0
2017-May-16 08:00N 68°01' E 015°20'0 0.0
2017-May-16 07:30N 68°01' E 015°20'0 0.0
2017-May-16 06:59N 68°01' E 015°20'0 0.0
2017-May-16 06:30N 68°01' E 015°20'0 0.0
2017-May-16 06:00N 68°01' E 015°20'0 0.0
2017-May-16 05:30N 68°01' E 015°20'0 0.0
2017-May-16 05:00N 68°01' E 015°20'0 0.0
2017-May-16 04:30N 68°01' E 015°20'0 0.0
2017-May-16 04:00N 68°01' E 015°20'0 0.0
2017-May-16 03:30N 68°01' E 015°20'0 0.0
2017-May-16 03:00N 68°01' E 015°20'0 0.0
2017-May-16 02:30N 68°01' E 015°20'0 0.0
2017-May-16 01:59N 68°01' E 015°20'0 0.0
2017-May-16 01:30N 68°01' E 015°20'0 0.0
2017-May-16 01:00N 68°01' E 015°20'0 0.0
2017-May-16 00:30N 68°01' E 015°20'0 0.0
2017-May-16 00:00N 68°01' E 015°20'0 0.0
2017-May-15 23:30N 68°01' E 015°20'0 0.0
2017-May-15 23:00N 68°01' E 015°20'0 0.0
2017-May-15 22:30N 68°01' E 015°20'0 0.0
2017-May-15 22:00N 68°01' E 015°20'0 0.0
2017-May-15 21:30N 68°01' E 015°20'0 0.0
2017-May-15 21:00N 68°01' E 015°20'0 0.0
2017-May-15 20:30N 68°01' E 015°20'0 0.0
2017-May-15 20:00N 68°01' E 015°20'0 0.0
2017-May-15 19:30N 68°01' E 015°20'0 0.0
2017-May-15 18:59N 68°01' E 015°20'0 0.0
2017-May-15 18:29N 68°01' E 015°20'0 0.0
2017-May-15 18:00N 68°01' E 015°20'0 0.0
2017-May-15 17:30N 68°01' E 015°20'0 0.0
2017-May-15 17:00N 68°01' E 015°20'0 0.0
2017-May-15 16:30N 68°01' E 015°20'0 0.1
2017-May-15 16:00N 68°01' E 015°20'3 5.0
2017-May-15 15:30N 67°59' E 015°19'0 0.0
2017-May-15 15:00N 67°59' E 015°19'4 3.9
2017-May-15 14:00N 67°55' E 015°16'2 3.9
2017-May-15 13:30N 67°54' E 015°11'0 0.0
2017-May-15 13:00N 67°54' E 015°11'0 0.0
2017-May-15 12:30N 67°54' E 015°11'1 2.9
2017-May-15 12:00N 67°55' E 015°15'5 9.5
2017-May-15 11:30N 67°59' E 015°20'2 4.2
2017-May-15 11:00N 68°01' E 015°20'0 0.0
2017-May-15 10:29N 68°01' E 015°20'0 0.0
2017-May-15 10:00N 68°01' E 015°20'0 0.0
2017-May-15 09:30N 68°01' E 015°20'0 0.0
2017-May-15 09:00N 68°01' E 015°20'0 0.0
2017-May-15 08:30N 68°01' E 015°20'0 0.0
2017-May-15 08:00N 68°01' E 015°20'0 0.0
2017-May-15 07:30N 68°01' E 015°20'0 0.0
2017-May-15 07:00N 68°01' E 015°20'0 0.0
2017-May-15 06:30N 68°01' E 015°20'0 0.0
2017-May-15 05:59N 68°01' E 015°20'0 0.0
2017-May-15 05:30N 68°01' E 015°20'0 0.0
2017-May-15 05:00N 68°01' E 015°20'0 0.0
2017-May-15 04:30N 68°01' E 015°20'0 0.0
2017-May-15 04:00N 68°01' E 015°20'0 0.0
2017-May-15 03:30N 68°01' E 015°20'0 0.0
2017-May-15 03:00N 68°01' E 015°20'0 0.0
2017-May-15 02:30N 68°01' E 015°20'0 0.0
2017-May-15 02:00N 68°01' E 015°20'0 0.0
2017-May-15 01:30N 68°01' E 015°20'0 0.0
2017-May-15 01:00N 68°01' E 015°20'0 0.0
2017-May-15 00:30N 68°01' E 015°20'0 0.0
2017-May-15 00:01N 68°01' E 015°20'0 0.0
2017-May-14 23:30N 68°01' E 015°20'0 0.0
2017-May-14 23:00N 68°01' E 015°20'0 0.0
2017-May-14 22:30N 68°01' E 015°20'0 0.0
2017-May-14 22:00N 68°01' E 015°20'0 0.0
2017-May-14 21:30N 68°01' E 015°20'  

Dump ship's entire track history